sensor_id;sensor_type;location;lat;lon;timestamp;pressure;altitude;pressure_sealevel;temperature;humidity
53719;BME280;39616;48.872;9.390;2023-02-28T00:00:52;99062.94;;;-3.10;67.72
53719;BME280;39616;48.872;9.390;2023-02-28T00:03:23;99061.28;;;-3.11;67.93
53719;BME280;39616;48.872;9.390;2023-02-28T00:05:53;99064.97;;;-3.12;68.09
53719;BME280;39616;48.872;9.390;2023-02-28T00:08:24;99057.19;;;-3.13;68.25
53719;BME280;39616;48.872;9.390;2023-02-28T00:10:54;99055.34;;;-3.13;68.18
53719;BME280;39616;48.872;9.390;2023-02-28T00:13:24;99068.25;;;-3.10;68.48
53719;BME280;39616;48.872;9.390;2023-02-28T00:16:11;99058.19;;;-3.14;68.48
53719;BME280;39616;48.872;9.390;2023-02-28T00:18:41;99055.31;;;-3.20;69.12
53719;BME280;39616;48.872;9.390;2023-02-28T00:21:12;99057.16;;;-3.20;69.19
53719;BME280;39616;48.872;9.390;2023-02-28T00:23:42;99057.97;;;-3.20;69.16
53719;BME280;39616;48.872;9.390;2023-02-28T00:26:13;99049.72;;;-3.25;69.54
53719;BME280;39616;48.872;9.390;2023-02-28T00:28:43;99056.06;;;-3.26;69.71
53719;BME280;39616;48.872;9.390;2023-02-28T00:31:13;99055.41;;;-3.28;69.77
53719;BME280;39616;48.872;9.390;2023-02-28T00:33:44;99057.25;;;-3.28;69.86
53719;BME280;39616;48.872;9.390;2023-02-28T00:36:14;99056.25;;;-3.27;70.67
53719;BME280;39616;48.872;9.390;2023-02-28T00:38:44;99052.16;;;-3.30;70.71
53719;BME280;39616;48.872;9.390;2023-02-28T00:41:15;99060.31;;;-3.31;70.65
53719;BME280;39616;48.872;9.390;2023-02-28T00:43:45;99051.31;;;-3.30;71.06
53719;BME280;39616;48.872;9.390;2023-02-28T00:46:15;99059.28;;;-3.30;71.31
53719;BME280;39616;48.872;9.390;2023-02-28T00:48:46;99055.81;;;-3.31;71.44
53719;BME280;39616;48.872;9.390;2023-02-28T00:51:16;99057.66;;;-3.31;71.34
53719;BME280;39616;48.872;9.390;2023-02-28T00:53:46;99053.72;;;-3.35;71.85
53719;BME280;39616;48.872;9.390;2023-02-28T00:56:17;99051.25;;;-3.37;72.20
53719;BME280;39616;48.872;9.390;2023-02-28T00:58:47;99054.16;;;-3.32;72.22
53719;BME280;39616;48.872;9.390;2023-02-28T01:01:17;99054.72;;;-3.36;72.31
53719;BME280;39616;48.872;9.390;2023-02-28T01:03:48;99050.00;;;-3.41;72.66
53719;BME280;39616;48.872;9.390;2023-02-28T01:06:18;99059.97;;;-3.43;72.88
53719;BME280;39616;48.872;9.390;2023-02-28T01:08:48;99052.19;;;-3.45;73.28
53719;BME280;39616;48.872;9.390;2023-02-28T01:11:19;99051.56;;;-3.47;73.11
53719;BME280;39616;48.872;9.390;2023-02-28T01:13:50;99051.09;;;-3.50;73.40
53719;BME280;39616;48.872;9.390;2023-02-28T01:16:20;99051.97;;;-3.50;74.05
53719;BME280;39616;48.872;9.390;2023-02-28T01:18:51;99050.66;;;-3.54;73.82
53719;BME280;39616;48.872;9.390;2023-02-28T01:21:21;99047.56;;;-3.57;73.94
53719;BME280;39616;48.872;9.390;2023-02-28T01:23:52;99044.09;;;-3.58;74.18
53719;BME280;39616;48.872;9.390;2023-02-28T01:26:22;99047.75;;;-3.59;74.42
53719;BME280;39616;48.872;9.390;2023-02-28T01:28:53;99049.41;;;-3.58;74.67
53719;BME280;39616;48.872;9.390;2023-02-28T01:31:23;99043.28;;;-3.58;74.30
53719;BME280;39616;48.872;9.390;2023-02-28T01:33:54;99040.00;;;-3.60;74.71
53719;BME280;39616;48.872;9.390;2023-02-28T01:36:25;99041.06;;;-3.55;74.36
53719;BME280;39616;48.872;9.390;2023-02-28T01:38:56;99045.56;;;-3.55;74.51
53719;BME280;39616;48.872;9.390;2023-02-28T01:41:28;99042.09;;;-3.56;74.63
53719;BME280;39616;48.872;9.390;2023-02-28T01:44:01;99042.09;;;-3.56;75.06
53719;BME280;39616;48.872;9.390;2023-02-28T01:46:35;99042.91;;;-3.55;75.61
53719;BME280;39616;48.872;9.390;2023-02-28T01:49:09;99042.09;;;-3.56;76.05
53719;BME280;39616;48.872;9.390;2023-02-28T01:51:45;99040.06;;;-3.54;75.92
53719;BME280;39616;48.872;9.390;2023-02-28T01:54:23;99045.31;;;-3.60;76.42
53719;BME280;39616;48.872;9.390;2023-02-28T01:56:57;99045.75;;;-3.57;76.02
53719;BME280;39616;48.872;9.390;2023-02-28T01:59:34;99036.34;;;-3.59;76.25
53719;BME280;39616;48.872;9.390;2023-02-28T02:02:05;99039.44;;;-3.56;76.36
53719;BME280;39616;48.872;9.390;2023-02-28T02:04:53;99035.59;;;-3.53;76.41
53719;BME280;39616;48.872;9.390;2023-02-28T02:07:25;99031.72;;;-3.51;76.73
53719;BME280;39616;48.872;9.390;2023-02-28T02:10:06;99028.25;;;-3.51;76.83
53719;BME280;39616;48.872;9.390;2023-02-28T02:18:52;99023.59;;;-3.49;77.70
53719;BME280;39616;48.872;9.390;2023-02-28T02:27:34;99021.00;;;-3.43;77.51
53719;BME280;39616;48.872;9.390;2023-02-28T02:32:49;99014.94;;;-3.36;77.58
53719;BME280;39616;48.872;9.390;2023-02-28T02:38:33;99014.13;;;-3.37;78.01
53719;BME280;39616;48.872;9.390;2023-02-28T02:44:06;99017.66;;;-3.30;78.03
53719;BME280;39616;48.872;9.390;2023-02-28T02:46:43;99014.00;;;-3.29;78.43
53719;BME280;39616;48.872;9.390;2023-02-28T02:49:21;99013.38;;;-3.31;78.60
53719;BME280;39616;48.872;9.390;2023-02-28T02:51:54;99012.59;;;-3.25;78.25
53719;BME280;39616;48.872;9.390;2023-02-28T02:54:29;99015.69;;;-3.21;78.55
53719;BME280;39616;48.872;9.390;2023-02-28T02:57:06;99006.47;;;-3.25;78.91
53719;BME280;39616;48.872;9.390;2023-02-28T02:59:41;99005.06;;;-3.21;79.03
53719;BME280;39616;48.872;9.390;2023-02-28T03:02:14;99009.56;;;-3.22;79.15
53719;BME280;39616;48.872;9.390;2023-02-28T03:04:50;98999.97;;;-3.23;79.29
53719;BME280;39616;48.872;9.390;2023-02-28T03:07:22;99007.28;;;-3.25;79.45
53719;BME280;39616;48.872;9.390;2023-02-28T03:09:53;99000.59;;;-3.21;79.57
53719;BME280;39616;48.872;9.390;2023-02-28T03:12:41;99006.31;;;-3.24;79.87
53719;BME280;39616;48.872;9.390;2023-02-28T03:15:27;98997.50;;;-3.24;79.95
53719;BME280;39616;48.872;9.390;2023-02-28T03:18:29;99006.91;;;-3.22;79.90
53719;BME280;39616;48.872;9.390;2023-02-28T03:21:06;99014.56;;;-3.12;79.78
53719;BME280;39616;48.872;9.390;2023-02-28T03:23:55;99005.78;;;-3.12;79.76
53719;BME280;39616;48.872;9.390;2023-02-28T03:26:29;99012.72;;;-3.11;79.78
53719;BME280;39616;48.872;9.390;2023-02-28T03:29:07;99011.53;;;-3.09;79.99
53719;BME280;39616;48.872;9.390;2023-02-28T03:31:56;99016.03;;;-3.03;79.60
53719;BME280;39616;48.872;9.390;2023-02-28T03:34:33;99006.84;;;-3.07;79.51
53719;BME280;39616;48.872;9.390;2023-02-28T03:37:08;99009.50;;;-3.07;79.69
53719;BME280;39616;48.872;9.390;2023-02-28T03:39:43;99008.66;;;-3.07;79.95
53719;BME280;39616;48.872;9.390;2023-02-28T03:42:19;99002.72;;;-3.09;79.85
53719;BME280;39616;48.872;9.390;2023-02-28T03:44:58;99003.38;;;-3.07;79.98
53719;BME280;39616;48.872;9.390;2023-02-28T03:47:37;99005.38;;;-3.09;79.91
53719;BME280;39616;48.872;9.390;2023-02-28T03:50:21;99009.50;;;-3.07;79.80
53719;BME280;39616;48.872;9.390;2023-02-28T03:53:00;99003.56;;;-3.09;79.88
53719;BME280;39616;48.872;9.390;2023-02-28T03:55:39;99015.00;;;-3.08;80.11
53719;BME280;39616;48.872;9.390;2023-02-28T04:01:15;99011.19;;;-2.99;80.26
53719;BME280;39616;48.872;9.390;2023-02-28T04:03:47;99014.22;;;-3.02;80.18
53719;BME280;39616;48.872;9.390;2023-02-28T04:06:20;99016.47;;;-2.99;80.24
53719;BME280;39616;48.872;9.390;2023-02-28T04:08:50;99008.72;;;-3.01;79.81
53719;BME280;39616;48.872;9.390;2023-02-28T04:11:24;99015.06;;;-3.02;79.61
53719;BME280;39616;48.872;9.390;2023-02-28T04:13:57;99013.00;;;-3.00;80.09
53719;BME280;39616;48.872;9.390;2023-02-28T04:16:29;99018.16;;;-2.98;79.74
53719;BME280;39616;48.872;9.390;2023-02-28T04:18:59;99020.59;;;-2.97;80.19
53719;BME280;39616;48.872;9.390;2023-02-28T04:21:38;99027.75;;;-2.97;79.94
53719;BME280;39616;48.872;9.390;2023-02-28T04:24:11;99021.78;;;-2.99;79.83
53719;BME280;39616;48.872;9.390;2023-02-28T04:26:46;99021.41;;;-2.96;80.34
53719;BME280;39616;48.872;9.390;2023-02-28T04:29:26;99026.50;;;-2.95;80.11
53719;BME280;39616;48.872;9.390;2023-02-28T04:31:56;99020.00;;;-2.92;80.35
53719;BME280;39616;48.872;9.390;2023-02-28T04:34:31;99025.97;;;-2.90;79.97
53719;BME280;39616;48.872;9.390;2023-02-28T04:37:02;99023.47;;;-2.92;80.25
53719;BME280;39616;48.872;9.390;2023-02-28T04:39:36;99016.59;;;-2.86;80.12
53719;BME280;39616;48.872;9.390;2023-02-28T04:42:06;99018.22;;;-2.85;79.93
53719;BME280;39616;48.872;9.390;2023-02-28T04:44:37;99023.16;;;-2.82;80.13
53719;BME280;39616;48.872;9.390;2023-02-28T04:47:07;99019.69;;;-2.82;80.34
53719;BME280;39616;48.872;9.390;2023-02-28T04:49:37;99011.72;;;-2.82;80.42
53719;BME280;39616;48.872;9.390;2023-02-28T04:52:08;99010.09;;;-2.83;80.72
53719;BME280;39616;48.872;9.390;2023-02-28T04:54:40;99002.31;;;-2.85;80.88
53719;BME280;39616;48.872;9.390;2023-02-28T04:57:10;99011.91;;;-2.84;80.97
53719;BME280;39616;48.872;9.390;2023-02-28T04:59:40;99018.66;;;-2.81;80.75
53719;BME280;39616;48.872;9.390;2023-02-28T05:02:11;99012.09;;;-2.85;81.13
53719;BME280;39616;48.872;9.390;2023-02-28T05:04:41;99011.53;;;-2.81;81.07
53719;BME280;39616;48.872;9.390;2023-02-28T05:07:12;99019.47;;;-2.81;81.37
53719;BME280;39616;48.872;9.390;2023-02-28T05:09:42;99021.56;;;-2.76;81.41
53719;BME280;39616;48.872;9.390;2023-02-28T05:12:12;99019.09;;;-2.78;81.22
53719;BME280;39616;48.872;9.390;2023-02-28T05:14:42;99018.09;;;-2.77;81.43
53719;BME280;39616;48.872;9.390;2023-02-28T05:17:14;99015.25;;;-2.75;81.29
53719;BME280;39616;48.872;9.390;2023-02-28T05:19:44;99020.72;;;-2.77;81.07
53719;BME280;39616;48.872;9.390;2023-02-28T05:22:15;99019.75;;;-2.76;81.39
53719;BME280;39616;48.872;9.390;2023-02-28T05:24:48;99015.44;;;-2.77;81.64
53719;BME280;39616;48.872;9.390;2023-02-28T05:27:18;99019.88;;;-2.84;81.13
53719;BME280;39616;48.872;9.390;2023-02-28T05:29:49;99020.50;;;-2.82;80.85
53719;BME280;39616;48.872;9.390;2023-02-28T05:32:19;99018.72;;;-2.75;81.04
53719;BME280;39616;48.872;9.390;2023-02-28T05:34:49;99007.88;;;-2.80;81.14
53719;BME280;39616;48.872;9.390;2023-02-28T05:37:20;99015.69;;;-2.72;80.90
53719;BME280;39616;48.872;9.390;2023-02-28T05:39:51;99012.59;;;-2.75;80.75
53719;BME280;39616;48.872;9.390;2023-02-28T05:42:21;99019.16;;;-2.71;80.27
53719;BME280;39616;48.872;9.390;2023-02-28T05:44:51;99015.47;;;-2.70;80.39
53719;BME280;39616;48.872;9.390;2023-02-28T05:47:21;99016.72;;;-2.66;80.14
53719;BME280;39616;48.872;9.390;2023-02-28T05:49:52;99014.88;;;-2.65;80.00
53719;BME280;39616;48.872;9.390;2023-02-28T05:52:22;99018.34;;;-2.72;80.44
53719;BME280;39616;48.872;9.390;2023-02-28T05:54:53;99018.56;;;-2.67;80.14
53719;BME280;39616;48.872;9.390;2023-02-28T05:57:23;99016.13;;;-2.68;80.32
53719;BME280;39616;48.872;9.390;2023-02-28T05:59:54;99024.50;;;-2.64;79.93
53719;BME280;39616;48.872;9.390;2023-02-28T06:02:24;99035.56;;;-2.61;80.02
53719;BME280;39616;48.872;9.390;2023-02-28T06:04:54;99034.31;;;-2.65;79.51
53719;BME280;39616;48.872;9.390;2023-02-28T06:07:25;99030.06;;;-2.59;79.82
53719;BME280;39616;48.872;9.390;2023-02-28T06:09:55;99038.03;;;-2.59;79.63
53719;BME280;39616;48.872;9.390;2023-02-28T06:12:25;99031.31;;;-2.55;79.42
53719;BME280;39616;48.872;9.390;2023-02-28T06:14:55;99040.09;;;-2.55;79.54
53719;BME280;39616;48.872;9.390;2023-02-28T06:17:26;99050.53;;;-2.53;79.34
53719;BME280;39616;48.872;9.390;2023-02-28T06:19:56;99040.47;;;-2.58;79.19
53719;BME280;39616;48.872;9.390;2023-02-28T06:22:26;99041.09;;;-2.56;79.44
53719;BME280;39616;48.872;9.390;2023-02-28T06:24:57;99049.03;;;-2.62;79.03
53719;BME280;39616;48.872;9.390;2023-02-28T06:27:27;99051.31;;;-2.59;79.30
53719;BME280;39616;48.872;9.390;2023-02-28T06:29:58;99053.56;;;-2.56;79.18
53719;BME280;39616;48.872;9.390;2023-02-28T06:32:28;99053.63;;;-2.50;79.31
53719;BME280;39616;48.872;9.390;2023-02-28T06:34:58;99048.69;;;-2.53;78.77
53719;BME280;39616;48.872;9.390;2023-02-28T06:37:30;99046.03;;;-2.53;78.64
53719;BME280;39616;48.872;9.390;2023-02-28T06:40:01;99058.94;;;-2.43;78.38
53719;BME280;39616;48.872;9.390;2023-02-28T06:42:32;99060.22;;;-2.39;78.56
53719;BME280;39616;48.872;9.390;2023-02-28T06:45:02;99061.88;;;-2.38;78.56
53719;BME280;39616;48.872;9.390;2023-02-28T06:47:40;99068.03;;;-2.31;78.39
53719;BME280;39616;48.872;9.390;2023-02-28T06:50:12;99065.19;;;-2.29;78.09
53719;BME280;39616;48.872;9.390;2023-02-28T06:52:42;99067.59;;;-2.34;78.27
53719;BME280;39616;48.872;9.390;2023-02-28T06:55:13;99067.59;;;-2.34;78.36
53719;BME280;39616;48.872;9.390;2023-02-28T06:57:43;99069.84;;;-2.38;77.96
53719;BME280;39616;48.872;9.390;2023-02-28T07:00:14;99070.91;;;-2.26;78.21
53719;BME280;39616;48.872;9.390;2023-02-28T07:02:44;99074.41;;;-2.25;77.56
53719;BME280;39616;48.872;9.390;2023-02-28T07:05:14;99073.78;;;-2.27;77.63
53719;BME280;39616;48.872;9.390;2023-02-28T07:07:45;99076.66;;;-2.22;77.66
53719;BME280;39616;48.872;9.390;2023-02-28T07:10:17;99083.06;;;-2.16;77.56
53719;BME280;39616;48.872;9.390;2023-02-28T07:12:47;99080.84;;;-2.06;77.69
53719;BME280;39616;48.872;9.390;2023-02-28T07:15:17;99077.19;;;-2.05;77.52
53719;BME280;39616;48.872;9.390;2023-02-28T07:17:48;99075.06;;;-2.16;77.59
53719;BME280;39616;48.872;9.390;2023-02-28T07:20:18;99081.38;;;-2.24;77.05
53719;BME280;39616;48.872;9.390;2023-02-28T07:22:49;99074.09;;;-2.09;77.15
53719;BME280;39616;48.872;9.390;2023-02-28T07:25:27;99083.69;;;-2.08;76.93
53719;BME280;39616;48.872;9.390;2023-02-28T07:27:58;99088.97;;;-2.14;77.26
53719;BME280;39616;48.872;9.390;2023-02-28T07:30:29;99082.28;;;-2.04;77.19
53719;BME280;39616;48.872;9.390;2023-02-28T07:32:59;99084.13;;;-2.04;76.36
53719;BME280;39616;48.872;9.390;2023-02-28T07:35:30;99087.00;;;-1.99;76.66
53719;BME280;39616;48.872;9.390;2023-02-28T07:38:01;99085.59;;;-2.02;76.55
53719;BME280;39616;48.872;9.390;2023-02-28T07:40:31;99084.34;;;-1.99;75.45
53719;BME280;39616;48.872;9.390;2023-02-28T07:43:02;99090.53;;;-1.92;75.77
53719;BME280;39616;48.872;9.390;2023-02-28T07:45:33;99101.38;;;-1.93;75.92
53719;BME280;39616;48.872;9.390;2023-02-28T07:48:06;99090.56;;;-1.85;75.12
53719;BME280;39616;48.872;9.390;2023-02-28T07:50:36;99093.84;;;-1.83;74.89
53719;BME280;39616;48.872;9.390;2023-02-28T07:53:07;99099.75;;;-1.88;74.03
53719;BME280;39616;48.872;9.390;2023-02-28T07:55:38;99106.13;;;-1.82;74.28
53719;BME280;39616;48.872;9.390;2023-02-28T07:58:08;99101.84;;;-1.83;74.08
53719;BME280;39616;48.872;9.390;2023-02-28T08:00:38;99098.34;;;-1.77;73.79
53719;BME280;39616;48.872;9.390;2023-02-28T08:03:12;99099.44;;;-1.72;73.62
53719;BME280;39616;48.872;9.390;2023-02-28T08:05:43;99096.94;;;-1.73;73.89
53719;BME280;39616;48.872;9.390;2023-02-28T08:08:14;99100.03;;;-1.70;73.90
53719;BME280;39616;48.872;9.390;2023-02-28T08:10:45;99095.78;;;-1.64;72.89
53719;BME280;39616;48.872;9.390;2023-02-28T08:13:15;99099.66;;;-1.60;73.02
53719;BME280;39616;48.872;9.390;2023-02-28T08:15:45;99092.56;;;-1.46;72.73
53719;BME280;39616;48.872;9.390;2023-02-28T08:18:17;99098.91;;;-1.47;72.25
53719;BME280;39616;48.872;9.390;2023-02-28T08:20:47;99092.59;;;-1.26;72.38
53719;BME280;39616;48.872;9.390;2023-02-28T08:23:18;99094.88;;;-1.23;72.01
53719;BME280;39616;48.872;9.390;2023-02-28T08:25:55;99092.59;;;-1.33;72.00
53719;BME280;39616;48.872;9.390;2023-02-28T08:28:26;99096.34;;;-1.14;71.35
53719;BME280;39616;48.872;9.390;2023-02-28T08:30:57;99100.44;;;-1.05;71.54
53719;BME280;39616;48.872;9.390;2023-02-28T08:33:27;99109.25;;;-0.98;71.11
53719;BME280;39616;48.872;9.390;2023-02-28T08:35:58;99103.72;;;-0.96;70.57
53719;BME280;39616;48.872;9.390;2023-02-28T08:38:28;99097.59;;;-0.77;70.53
53719;BME280;39616;48.872;9.390;2023-02-28T08:41:00;99110.91;;;-0.83;70.45
53719;BME280;39616;48.872;9.390;2023-02-28T08:43:31;99106.00;;;-0.73;69.34
53719;BME280;39616;48.872;9.390;2023-02-28T08:46:01;99107.44;;;-0.77;69.45
53719;BME280;39616;48.872;9.390;2023-02-28T08:48:34;99105.41;;;-0.55;69.58
53719;BME280;39616;48.872;9.390;2023-02-28T08:51:17;99104.97;;;-0.45;69.09
53719;BME280;39616;48.872;9.390;2023-02-28T08:53:59;99109.28;;;-0.38;68.29
53719;BME280;39616;48.872;9.390;2023-02-28T08:56:29;99110.31;;;-0.32;67.86
53719;BME280;39616;48.872;9.390;2023-02-28T08:59:00;99111.72;;;-0.30;67.72
53719;BME280;39616;48.872;9.390;2023-02-28T09:01:30;99115.81;;;-0.27;67.85
53719;BME280;39616;48.872;9.390;2023-02-28T09:04:01;99111.13;;;-0.32;68.04
53719;BME280;39616;48.872;9.390;2023-02-28T09:06:32;99106.38;;;-0.16;67.57
53719;BME280;39616;48.872;9.390;2023-02-28T09:09:03;99109.44;;;-0.19;67.81
53719;BME280;39616;48.872;9.390;2023-02-28T09:11:36;99105.94;;;0.00;67.11
53719;BME280;39616;48.872;9.390;2023-02-28T09:14:06;99097.91;;;0.07;67.18
53719;BME280;39616;48.872;9.390;2023-02-28T09:16:37;99099.25;;;0.36;66.78
53719;BME280;39616;48.872;9.390;2023-02-28T09:19:10;99097.53;;;0.55;65.34
53719;BME280;39616;48.872;9.390;2023-02-28T09:21:41;99102.47;;;0.51;65.46
53719;BME280;39616;48.872;9.390;2023-02-28T09:24:11;99102.47;;;0.51;64.59
53719;BME280;39616;48.872;9.390;2023-02-28T09:26:44;99106.78;;;0.52;65.05
53719;BME280;39616;48.872;9.390;2023-02-28T09:29:14;99104.28;;;0.57;64.64
53719;BME280;39616;48.872;9.390;2023-02-28T09:31:46;99103.22;;;0.65;64.41
53719;BME280;39616;48.872;9.390;2023-02-28T09:34:17;99104.41;;;0.76;64.11
53719;BME280;39616;48.872;9.390;2023-02-28T09:36:47;99104.34;;;0.89;63.78
53719;BME280;39616;48.872;9.390;2023-02-28T09:39:18;99093.66;;;0.89;63.50
53719;BME280;39616;48.872;9.390;2023-02-28T09:41:50;99104.81;;;1.11;62.67
53719;BME280;39616;48.872;9.390;2023-02-28T09:47:03;99115.34;;;1.31;62.30
53719;BME280;39616;48.872;9.390;2023-02-28T09:49:40;99109.28;;;1.17;62.34
53719;BME280;39616;48.872;9.390;2023-02-28T09:52:16;99111.53;;;1.20;62.44
53719;BME280;39616;48.872;9.390;2023-02-28T09:54:47;99109.66;;;1.20;61.54
53719;BME280;39616;48.872;9.390;2023-02-28T09:57:37;99118.03;;;0.99;62.67
53719;BME280;39616;48.872;9.390;2023-02-28T10:00:28;99118.97;;;0.80;62.20
53719;BME280;39616;48.872;9.390;2023-02-28T10:06:19;99117.97;;;1.12;62.47
53719;BME280;39616;48.872;9.390;2023-02-28T10:08:58;99115.78;;;1.28;61.65
53719;BME280;39616;48.872;9.390;2023-02-28T10:11:33;99128.75;;;1.24;62.53
53719;BME280;39616;48.872;9.390;2023-02-28T10:14:17;99123.38;;;1.31;61.38
53719;BME280;39616;48.872;9.390;2023-02-28T10:16:53;99114.59;;;1.49;61.20
53719;BME280;39616;48.872;9.390;2023-02-28T10:19:34;99113.63;;;2.11;59.80
53719;BME280;39616;48.872;9.390;2023-02-28T10:22:11;99123.50;;;2.66;58.58
53719;BME280;39616;48.872;9.390;2023-02-28T10:24:53;99128.91;;;2.59;58.24
53719;BME280;39616;48.872;9.390;2023-02-28T10:27:28;99133.09;;;2.37;58.86
53719;BME280;39616;48.872;9.390;2023-02-28T10:30:00;99137.78;;;2.23;58.76
53719;BME280;39616;48.872;9.390;2023-02-28T10:32:37;99135.09;;;2.23;58.54
53719;BME280;39616;48.872;9.390;2023-02-28T10:37:40;99126.94;;;2.18;58.87
53719;BME280;39616;48.872;9.390;2023-02-28T10:43:03;99129.81;;;2.35;58.52
53719;BME280;39616;48.872;9.390;2023-02-28T10:45:35;99129.69;;;2.30;58.02
53719;BME280;39616;48.872;9.390;2023-02-28T11:04:02;99122.03;;;3.54;54.81
53719;BME280;39616;48.872;9.390;2023-02-28T11:06:34;99112.66;;;4.27;54.10
53719;BME280;39616;48.872;9.390;2023-02-28T11:09:18;99098.00;;;5.15;53.04
53719;BME280;39616;48.872;9.390;2023-02-28T11:11:50;99098.06;;;4.75;53.00
53719;BME280;39616;48.872;9.390;2023-02-28T11:14:28;99090.28;;;5.86;50.17
53719;BME280;39616;48.872;9.390;2023-02-28T11:17:17;99090.78;;;6.22;49.88
53719;BME280;39616;48.872;9.390;2023-02-28T11:19:53;99085.47;;;6.71;48.01
53719;BME280;39616;48.872;9.390;2023-02-28T11:22:27;99079.28;;;6.48;48.08
53719;BME280;39616;48.872;9.390;2023-02-28T11:25:07;99088.00;;;5.95;49.10
53719;BME280;39616;48.872;9.390;2023-02-28T11:33:29;99089.28;;;4.51;51.31
53719;BME280;39616;48.872;9.390;2023-02-28T11:36:11;99095.13;;;4.48;52.25
53719;BME280;39616;48.872;9.390;2023-02-28T11:38:42;99087.53;;;4.45;51.70
53719;BME280;39616;48.872;9.390;2023-02-28T11:44:09;99084.28;;;4.43;52.61
53719;BME280;39616;48.872;9.390;2023-02-28T11:46:45;99085.09;;;4.43;52.83
53719;BME280;39616;48.872;9.390;2023-02-28T11:49:40;99081.28;;;4.16;52.98
53719;BME280;39616;48.872;9.390;2023-02-28T11:52:52;99082.38;;;4.03;53.07
53719;BME280;39616;48.872;9.390;2023-02-28T11:55:36;99084.88;;;4.33;52.99
53719;BME280;39616;48.872;9.390;2023-02-28T12:01:23;99083.69;;;4.41;52.30
53719;BME280;39616;48.872;9.390;2023-02-28T12:04:25;99087.25;;;4.58;52.04
53719;BME280;39616;48.872;9.390;2023-02-28T12:10:04;99067.06;;;4.84;51.34
53719;BME280;39616;48.872;9.390;2023-02-28T12:12:48;99069.22;;;4.70;51.12
53719;BME280;39616;48.872;9.390;2023-02-28T12:18:18;99069.28;;;4.87;51.04
53719;BME280;39616;48.872;9.390;2023-02-28T12:24:06;99060.41;;;5.03;50.89
53719;BME280;39616;48.872;9.390;2023-02-28T12:26:47;99063.25;;;4.97;50.45
53719;BME280;39616;48.872;9.390;2023-02-28T12:32:16;99066.13;;;4.90;51.33
53719;BME280;39616;48.872;9.390;2023-02-28T12:35:02;99047.56;;;5.05;51.32
53719;BME280;39616;48.872;9.390;2023-02-28T12:40:15;99051.00;;;5.01;50.84
53719;BME280;39616;48.872;9.390;2023-02-28T12:42:58;99053.00;;;4.94;50.89
53719;BME280;39616;48.872;9.390;2023-02-28T12:48:17;99044.53;;;5.02;50.37
53719;BME280;39616;48.872;9.390;2023-02-28T12:50:50;99038.69;;;5.22;50.45
53719;BME280;39616;48.872;9.390;2023-02-28T12:53:39;99041.94;;;5.41;49.75
53719;BME280;39616;48.872;9.390;2023-02-28T13:11:02;99028.25;;;5.42;49.20
53719;BME280;39616;48.872;9.390;2023-02-28T13:13:33;99025.34;;;5.27;49.07
53719;BME280;39616;48.872;9.390;2023-02-28T13:16:08;99024.66;;;5.37;49.57
53719;BME280;39616;48.872;9.390;2023-02-28T13:18:39;99026.34;;;5.60;49.68
53719;BME280;39616;48.872;9.390;2023-02-28T13:21:24;99027.91;;;5.72;49.15
53719;BME280;39616;48.872;9.390;2023-02-28T13:34:39;99017.22;;;4.93;50.85
53719;BME280;39616;48.872;9.390;2023-02-28T13:39:54;99019.34;;;5.08;50.11
53719;BME280;39616;48.872;9.390;2023-02-28T13:42:36;99021.41;;;5.18;50.05
53719;BME280;39616;48.872;9.390;2023-02-28T13:48:04;99021.44;;;5.35;50.05
53719;BME280;39616;48.872;9.390;2023-02-28T13:50:44;99023.56;;;5.16;50.54
53719;BME280;39616;48.872;9.390;2023-02-28T13:56:07;99020.19;;;5.25;50.16
53719;BME280;39616;48.872;9.390;2023-02-28T13:58:55;99025.47;;;5.03;50.48
53719;BME280;39616;48.872;9.390;2023-02-28T14:04:49;99033.06;;;4.61;51.16
53719;BME280;39616;48.872;9.390;2023-02-28T14:07:31;99030.84;;;4.87;50.75
53719;BME280;39616;48.872;9.390;2023-02-28T14:10:06;99019.53;;;5.01;50.78
53719;BME280;39616;48.872;9.390;2023-02-28T14:15:48;99025.94;;;4.83;51.33
53719;BME280;39616;48.872;9.390;2023-02-28T14:18:29;99017.06;;;5.00;51.07
53719;BME280;39616;48.872;9.390;2023-02-28T14:29:12;99025.63;;;4.80;51.41
53719;BME280;39616;48.872;9.390;2023-02-28T14:31:54;99024.34;;;4.71;51.68
53719;BME280;39616;48.872;9.390;2023-02-28T14:35:16;99022.59;;;4.76;51.24
53719;BME280;39616;48.872;9.390;2023-02-28T14:37:29;99024.75;;;4.91;51.20
53719;BME280;39616;48.872;9.390;2023-02-28T14:40:03;99023.44;;;4.94;51.20
53719;BME280;39616;48.872;9.390;2023-02-28T14:42:36;99030.34;;;4.90;51.24
53719;BME280;39616;48.872;9.390;2023-02-28T14:45:18;99024.75;;;4.91;51.37
53719;BME280;39616;48.872;9.390;2023-02-28T14:47:50;99033.34;;;4.76;51.44
53719;BME280;39616;48.872;9.390;2023-02-28T14:50:31;99030.19;;;4.79;51.73
53719;BME280;39616;48.872;9.390;2023-02-28T14:53:02;99036.44;;;4.85;52.01
53719;BME280;39616;48.872;9.390;2023-02-28T14:55:34;99032.38;;;4.82;51.91
53719;BME280;39616;48.872;9.390;2023-02-28T14:58:06;99036.59;;;4.78;51.80
53719;BME280;39616;48.872;9.390;2023-02-28T15:00:46;99031.13;;;4.73;51.77
53719;BME280;39616;48.872;9.390;2023-02-28T15:03:23;99028.38;;;4.68;52.20
53719;BME280;39616;48.872;9.390;2023-02-28T15:05:56;99040.41;;;4.66;52.59
53719;BME280;39616;48.872;9.390;2023-02-28T15:08:27;99033.50;;;4.70;52.57
53719;BME280;39616;48.872;9.390;2023-02-28T15:13:42;99036.38;;;4.51;52.82
53719;BME280;39616;48.872;9.390;2023-02-28T15:16:42;99043.69;;;4.56;52.86
53719;BME280;39616;48.872;9.390;2023-02-28T15:21:48;99042.50;;;4.23;53.20
53719;BME280;39616;48.872;9.390;2023-02-28T15:24:37;99035.97;;;4.31;53.59
53719;BME280;39616;48.872;9.390;2023-02-28T15:27:15;99041.34;;;4.19;53.94
53719;BME280;39616;48.872;9.390;2023-02-28T15:29:56;99049.91;;;4.16;53.96
53719;BME280;39616;48.872;9.390;2023-02-28T15:32:30;99050.84;;;4.10;53.73
53719;BME280;39616;48.872;9.390;2023-02-28T15:38:01;99054.25;;;3.94;54.55
53719;BME280;39616;48.872;9.390;2023-02-28T15:40:37;99052.50;;;3.87;54.73
53719;BME280;39616;48.872;9.390;2023-02-28T15:43:17;99052.28;;;3.89;54.23
53719;BME280;39616;48.872;9.390;2023-02-28T15:45:53;99050.41;;;3.90;54.49
53719;BME280;39616;48.872;9.390;2023-02-28T15:48:32;99049.25;;;3.85;54.81
53719;BME280;39616;48.872;9.390;2023-02-28T15:51:14;99045.03;;;3.90;54.78
53719;BME280;39616;48.872;9.390;2023-02-28T15:53:51;99053.53;;;3.86;54.54
53719;BME280;39616;48.872;9.390;2023-02-28T15:56:30;99045.84;;;3.78;54.49
53719;BME280;39616;48.872;9.390;2023-02-28T15:59:03;99054.16;;;3.77;55.14